Time;durP1;ratioP1;P1;durP2;ratioP2;P2;SDS_P1;SDS_P2;PMS_P1;PMS_P2;Temp;Humidity;BMP_temperature;BMP_pressure;BME280_temperature;BME280_humidity;BME280_pressure;Samples;Min_cycle;Max_cycle;Signal;HPM_P1;HPM_P2
2021/07/16 00:01:32;;;;;;;1.52;1.42;;;;;;;;;;5044901;28;20063;-79
2021/07/16 00:03:58;;;;;;;2.88;1.60;;;;;;;;;;5041866;28;20441;-79
2021/07/16 00:06:23;;;;;;;1.90;1.80;;;;;;;;;;5032492;28;20476;-79
2021/07/16 00:08:48;;;;;;;2.83;1.90;;;;;;;;;;5042782;28;20136;-79
2021/07/16 00:11:14;;;;;;;2.58;1.88;;;;;;;;;;5037893;28;20021;-79
2021/07/16 00:13:39;;;;;;;2.20;2.00;;;;;;;;;;5039707;28;20056;-80
2021/07/16 00:16:05;;;;;;;1.98;1.80;;;;;;;;;;5046567;28;20286;-78
2021/07/16 00:18:31;;;;;;;2.40;1.90;;;;;;;;;;5047038;28;20078;-79
2021/07/16 00:20:57;;;;;;;2.08;1.90;;;;;;;;;;5040365;28;20028;-79
2021/07/16 00:23:23;;;;;;;2.90;1.80;;;;;;;;;;5034949;28;20056;-80
2021/07/16 00:25:49;;;;;;;2.78;1.90;;;;;;;;;;5038399;28;20069;-79
2021/07/16 00:28:14;;;;;;;2.88;2.08;;;;;;;;;;5036572;28;20233;-77
2021/07/16 00:30:39;;;;;;;2.88;2.33;;;;;;;;;;5037925;28;20077;-80
2021/07/16 00:33:06;;;;;;;5.07;2.10;;;;;;;;;;5046474;28;20032;-77
2021/07/16 00:35:32;;;;;;;3.67;2.33;;;;;;;;;;5042821;28;20033;-79
2021/07/16 00:37:57;;;;;;;4.57;2.70;;;;;;;;;;5038727;28;20129;-80
2021/07/16 00:40:22;;;;;;;7.72;2.53;;;;;;;;;;5035359;28;20028;-79
2021/07/16 00:42:48;;;;;;;2.83;2.35;;;;;;;;;;5041947;28;20025;-79
2021/07/16 00:45:15;;;;;;;3.08;2.70;;;;;;;;;;5041942;28;20116;-80
2021/07/16 00:47:42;;;;;;;5.40;2.65;;;;;;;;;;5035385;28;20509;-79
2021/07/16 00:50:14;;;;;;;3.10;2.63;;;;;;;;;;5046268;28;20040;-79
2021/07/16 00:52:41;;;;;;;2.53;2.22;;;;;;;;;;5039286;28;20381;-79
2021/07/16 00:55:08;;;;;;;4.57;2.67;;;;;;;;;;5041851;28;20509;-80
2021/07/16 00:57:33;;;;;;;3.17;2.35;;;;;;;;;;5039800;28;20056;-80
2021/07/16 01:00:00;;;;;;;3.90;2.22;;;;;;;;;;5040887;28;20485;-79
2021/07/16 01:02:26;;;;;;;5.72;2.33;;;;;;;;;;5036068;28;20604;-79
2021/07/16 01:04:54;;;;;;;3.13;2.30;;;;;;;;;;5041380;28;20037;-80
2021/07/16 01:07:20;;;;;;;2.20;2.07;;;;;;;;;;5044759;28;20028;-79
2021/07/16 01:09:50;;;;;;;2.45;2.15;;;;;;;;;;5045821;28;20037;-79
2021/07/16 01:12:16;;;;;;;4.30;2.10;;;;;;;;;;5039720;28;20087;-78
2021/07/16 01:14:41;;;;;;;3.05;2.17;;;;;;;;;;5044399;28;20025;-79
2021/07/16 01:17:07;;;;;;;3.70;2.20;;;;;;;;;;5042488;28;20144;-79
2021/07/16 01:19:48;;;;;;;3.03;2.67;;;;;;;;;;5044573;28;20026;-79
2021/07/16 01:22:16;;;;;;;3.95;2.55;;;;;;;;;;5044109;28;20021;-79
2021/07/16 01:24:42;;;;;;;3.85;2.35;;;;;;;;;;5045368;28;20416;-79
2021/07/16 01:27:08;;;;;;;2.85;2.47;;;;;;;;;;5037847;28;20029;-79
2021/07/16 01:29:36;;;;;;;5.30;3.72;;;;;;;;;;5040293;28;20101;-79
2021/07/16 01:32:03;;;;;;;2.47;2.27;;;;;;;;;;5045996;28;20025;-79
2021/07/16 01:34:28;;;;;;;3.40;2.90;;;;;;;;;;5044874;28;20612;-79
2021/07/16 01:36:54;;;;;;;4.03;2.45;;;;;;;;;;5046996;28;20036;-79
2021/07/16 01:39:19;;;;;;;6.60;2.42;;;;;;;;;;5048442;28;20043;-79
2021/07/16 01:41:45;;;;;;;7.57;2.75;;;;;;;;;;5043834;28;20136;-79
2021/07/16 01:44:11;;;;;;;2.83;2.53;;;;;;;;;;5039019;28;20030;-79
2021/07/16 01:46:36;;;;;;;3.20;2.88;;;;;;;;;;5047763;28;20036;-79
2021/07/16 01:49:02;;;;;;;5.32;2.63;;;;;;;;;;5044925;28;20027;-79
2021/07/16 01:51:28;;;;;;;2.80;2.60;;;;;;;;;;5050297;28;20111;-79
2021/07/16 01:53:53;;;;;;;3.92;2.60;;;;;;;;;;5043215;28;20029;-79
2021/07/16 01:56:19;;;;;;;3.72;2.92;;;;;;;;;;5046124;28;20025;-79
2021/07/16 01:58:46;;;;;;;3.40;2.97;;;;;;;;;;5043466;28;20029;-80
2021/07/16 02:01:15;;;;;;;5.35;2.70;;;;;;;;;;5048081;28;20028;-80
2021/07/16 02:03:45;;;;;;;4.85;2.95;;;;;;;;;;5044988;28;20065;-79
2021/07/16 02:06:11;;;;;;;4.07;2.50;;;;;;;;;;5045433;28;20031;-80
2021/07/16 02:08:37;;;;;;;3.00;2.75;;;;;;;;;;5042989;28;20025;-80
2021/07/16 02:11:03;;;;;;;3.65;2.70;;;;;;;;;;5043476;28;20036;-79
2021/07/16 02:13:29;;;;;;;4.80;3.00;;;;;;;;;;5044749;28;20483;-80
2021/07/16 02:15:55;;;;;;;4.70;3.13;;;;;;;;;;5043759;28;20029;-80
2021/07/16 02:18:21;;;;;;;4.20;3.38;;;;;;;;;;5045041;28;20318;-79
2021/07/16 02:20:48;;;;;;;3.95;3.13;;;;;;;;;;5047069;28;20075;-80
2021/07/16 02:23:17;;;;;;;4.70;3.38;;;;;;;;;;5042494;28;20795;-79
2021/07/16 02:25:42;;;;;;;;;;;;;;;;;;5045820;28;20309;-79
2021/07/16 02:28:13;;;;;;;7.70;5.10;;;;;;;;;;5047018;28;20059;-79
2021/07/16 02:30:38;;;;;;;5.80;4.68;;;;;;;;;;5044059;28;20025;-79
2021/07/16 02:33:04;;;;;;;5.85;5.20;;;;;;;;;;5047414;28;20021;-79
2021/07/16 02:35:31;;;;;;;5.43;4.88;;;;;;;;;;5048441;28;20025;-79
2021/07/16 02:38:01;;;;;;;7.05;5.88;;;;;;;;;;5044803;28;20059;-80
2021/07/16 02:40:27;;;;;;;8.48;6.93;;;;;;;;;;5045127;28;20025;-79
2021/07/16 02:42:53;;;;;;;7.70;6.43;;;;;;;;;;5034466;28;20036;-79
2021/07/16 02:45:21;;;;;;;11.35;6.88;;;;;;;;;;5045204;28;20083;-79
2021/07/16 02:47:47;;;;;;;9.73;6.65;;;;;;;;;;5044772;28;20605;-79
2021/07/16 02:50:15;;;;;;;9.30;6.30;;;;;;;;;;5063837;28;20029;-79
2021/07/16 02:52:42;;;;;;;8.40;6.53;;;;;;;;;;5043191;28;20051;-79
2021/07/16 02:55:08;;;;;;;10.20;6.70;;;;;;;;;;5047847;28;20037;-80
2021/07/16 02:57:34;;;;;;;9.48;6.57;;;;;;;;;;5043151;28;20402;-79
2021/07/16 03:00:00;;;;;;;8.75;7.68;;;;;;;;;;5047321;28;20029;-79
2021/07/16 03:02:29;;;;;;;10.77;8.52;;;;;;;;;;5047626;28;20028;-79
2021/07/16 03:04:57;;;;;;;11.57;8.35;;;;;;;;;;5045572;28;20116;-79
2021/07/16 03:07:23;;;;;;;15.60;8.15;;;;;;;;;;5040262;28;20120;-79
2021/07/16 03:09:48;;;;;;;9.55;7.95;;;;;;;;;;5047949;28;20493;-79
2021/07/16 03:12:13;;;;;;;11.52;7.72;;;;;;;;;;5038839;28;20029;-79
2021/07/16 03:14:39;;;;;;;14.75;9.05;;;;;;;;;;5044500;28;20459;-79
2021/07/16 03:17:05;;;;;;;11.40;8.23;;;;;;;;;;5035241;28;20025;-79
2021/07/16 03:19:31;;;;;;;10.65;8.02;;;;;;;;;;5043443;28;20120;-79
2021/07/16 03:21:56;;;;;;;9.27;7.80;;;;;;;;;;5048403;28;20485;-79
2021/07/16 03:24:22;;;;;;;12.20;8.00;;;;;;;;;;5042272;28;20457;-79
2021/07/16 03:26:47;;;;;;;10.65;7.90;;;;;;;;;;5041526;28;20071;-79
2021/07/16 03:29:13;;;;;;;10.65;8.25;;;;;;;;;;5037661;28;20033;-79
2021/07/16 03:31:39;;;;;;;10.38;8.43;;;;;;;;;;5034843;28;20033;-78
2021/07/16 03:34:04;;;;;;;14.52;8.82;;;;;;;;;;5048074;28;20037;-79
2021/07/16 03:36:29;;;;;;;13.05;8.80;;;;;;;;;;5045784;28;20473;-80
2021/07/16 03:38:55;;;;;;;11.18;8.93;;;;;;;;;;5042471;28;20525;-79
2021/07/16 03:41:21;;;;;;;12.43;8.73;;;;;;;;;;5041584;28;20045;-80
2021/07/16 03:43:46;;;;;;;14.52;9.90;;;;;;;;;;5043042;28;20099;-80
2021/07/16 03:46:12;;;;;;;14.68;9.38;;;;;;;;;;5042818;28;20017;-80
2021/07/16 03:48:37;;;;;;;12.85;9.10;;;;;;;;;;5038840;28;20154;-77
2021/07/16 03:51:03;;;;;;;12.20;9.48;;;;;;;;;;5039993;28;20094;-79
2021/07/16 03:53:28;;;;;;;13.15;8.40;;;;;;;;;;5045438;28;20400;-80
2021/07/16 03:55:54;;;;;;;14.00;10.27;;;;;;;;;;5043155;28;20074;-79
2021/07/16 03:58:19;;;;;;;15.07;10.23;;;;;;;;;;5046251;28;20276;-80
2021/07/16 04:00:45;;;;;;;14.25;9.55;;;;;;;;;;5044849;28;20017;-80
2021/07/16 04:03:10;;;;;;;12.63;9.25;;;;;;;;;;5042833;28;20484;-80
2021/07/16 04:05:37;;;;;;;11.55;8.30;;;;;;;;;;5042906;28;20025;-80
2021/07/16 04:08:04;;;;;;;12.07;8.73;;;;;;;;;;5035930;28;20075;-80
2021/07/16 04:10:32;;;;;;;21.08;11.05;;;;;;;;;;5042703;28;20017;-80
2021/07/16 04:13:01;;;;;;;17.90;9.95;;;;;;;;;;5037735;28;20032;-80
2021/07/16 04:15:27;;;;;;;13.65;10.07;;;;;;;;;;5038281;28;20369;-80
2021/07/16 04:17:58;;;;;;;15.93;10.55;;;;;;;;;;5042770;28;20030;-79
2021/07/16 04:20:25;;;;;;;18.80;9.45;;;;;;;;;;5043339;28;20032;-79
2021/07/16 04:22:50;;;;;;;13.30;9.60;;;;;;;;;;5042641;28;20441;-80
2021/07/16 04:25:18;;;;;;;13.50;9.52;;;;;;;;;;5044253;28;20055;-79
2021/07/16 04:27:45;;;;;;;15.95;10.88;;;;;;;;;;5035963;28;20060;-80
2021/07/16 04:30:12;;;;;;;14.20;9.52;;;;;;;;;;5045513;28;20028;-79
2021/07/16 04:32:39;;;;;;;14.07;9.77;;;;;;;;;;5041788;28;20029;-80
2021/07/16 04:35:05;;;;;;;15.77;10.77;;;;;;;;;;5036881;28;20021;-79
2021/07/16 04:37:30;;;;;;;13.40;9.30;;;;;;;;;;5045146;28;20112;-80
2021/07/16 04:39:56;;;;;;;15.07;10.23;;;;;;;;;;5044640;28;20112;-80
2021/07/16 04:42:21;;;;;;;14.65;10.60;;;;;;;;;;5041595;28;20053;-80
2021/07/16 04:44:47;;;;;;;14.88;9.88;;;;;;;;;;5044380;28;20040;-80
2021/07/16 04:47:13;;;;;;;14.85;10.32;;;;;;;;;;5041246;28;20052;-79
2021/07/16 04:49:38;;;;;;;15.73;10.30;;;;;;;;;;5045147;28;20493;-78
2021/07/16 04:52:04;;;;;;;15.68;9.95;;;;;;;;;;5040503;28;20072;-78
2021/07/16 04:54:30;;;;;;;15.20;10.23;;;;;;;;;;5041052;28;20121;-78
2021/07/16 04:56:55;;;;;;;14.38;10.43;;;;;;;;;;5045873;28;20021;-79
2021/07/16 04:59:21;;;;;;;18.00;10.73;;;;;;;;;;5042037;28;20033;-78
2021/07/16 05:01:48;;;;;;;18.20;12.27;;;;;;;;;;5046785;28;20056;-79
2021/07/16 05:04:13;;;;;;;18.58;11.82;;;;;;;;;;5047751;28;20026;-79
2021/07/16 05:06:39;;;;;;;18.92;11.90;;;;;;;;;;5042889;28;20389;-77
2021/07/16 05:09:04;;;;;;;18.52;11.65;;;;;;;;;;5042182;28;20485;-78
2021/07/16 05:11:33;;;;;;;18.27;10.82;;;;;;;;;;5044212;28;20027;-78
2021/07/16 05:14:00;;;;;;;16.90;10.43;;;;;;;;;;5042484;28;20033;-78
2021/07/16 05:16:26;;;;;;;21.85;12.73;;;;;;;;;;5044523;28;20428;-78
2021/07/16 05:18:51;;;;;;;20.60;12.35;;;;;;;;;;5041124;28;20029;-78
2021/07/16 05:21:17;;;;;;;24.02;12.93;;;;;;;;;;5047503;28;20143;-78
2021/07/16 05:23:43;;;;;;;17.75;11.32;;;;;;;;;;5039051;28;20060;-78
2021/07/16 05:26:09;;;;;;;18.20;12.73;;;;;;;;;;5033096;28;20476;-78
2021/07/16 05:28:34;;;;;;;18.73;12.60;;;;;;;;;;5042053;28;20044;-80
2021/07/16 05:31:00;;;;;;;21.83;13.43;;;;;;;;;;5042501;28;20040;-78
2021/07/16 05:33:26;;;;;;;22.15;10.18;;;;;;;;;;5038893;28;20482;-78
2021/07/16 05:35:52;;;;;;;20.42;13.13;;;;;;;;;;5047594;28;20024;-80
2021/07/16 05:38:21;;;;;;;21.17;13.57;;;;;;;;;;5045561;28;20033;-80
2021/07/16 05:40:46;;;;;;;24.23;12.85;;;;;;;;;;5039977;28;20377;-80
2021/07/16 05:43:12;;;;;;;30.25;12.82;;;;;;;;;;5042117;28;20225;-80
2021/07/16 05:45:39;;;;;;;18.88;12.60;;;;;;;;;;5057536;28;20016;-79
2021/07/16 05:48:10;;;;;;;21.25;13.13;;;;;;;;;;5039996;28;20147;-79
2021/07/16 05:50:36;;;;;;;18.70;13.32;;;;;;;;;;5044207;28;20040;-80
2021/07/16 05:53:01;;;;;;;20.90;13.00;;;;;;;;;;5047801;28;20480;-80
2021/07/16 05:55:27;;;;;;;22.90;13.27;;;;;;;;;;5043648;28;20036;-79
2021/07/16 05:57:52;;;;;;;21.55;14.27;;;;;;;;;;5046268;28;20127;-80
2021/07/16 06:00:18;;;;;;;19.08;12.95;;;;;;;;;;5048536;28;20033;-80
2021/07/16 06:02:44;;;;;;;18.17;11.40;;;;;;;;;;5042363;28;20052;-79
2021/07/16 06:05:10;;;;;;;19.92;12.98;;;;;;;;;;5049230;28;20110;-80
2021/07/16 06:07:35;;;;;;;19.17;11.82;;;;;;;;;;5045517;28;20064;-79
2021/07/16 06:10:01;;;;;;;14.85;9.93;;;;;;;;;;5041240;28;20060;-79
2021/07/16 06:12:27;;;;;;;15.98;10.88;;;;;;;;;;5043461;28;20054;-79
2021/07/16 06:14:55;;;;;;;15.68;10.60;;;;;;;;;;5044039;28;20032;-78
2021/07/16 06:17:24;;;;;;;12.35;9.27;;;;;;;;;;5046892;28;20400;-78
2021/07/16 06:19:50;;;;;;;13.77;9.45;;;;;;;;;;5047616;28;20037;-78
2021/07/16 06:22:15;;;;;;;13.80;9.68;;;;;;;;;;5039432;28;20029;-78
2021/07/16 06:24:41;;;;;;;12.20;9.20;;;;;;;;;;5046489;28;20493;-77
2021/07/16 06:27:06;;;;;;;12.57;9.25;;;;;;;;;;5042568;28;20029;-78
2021/07/16 06:29:32;;;;;;;13.00;9.05;;;;;;;;;;5038161;28;20097;-78
2021/07/16 06:31:57;;;;;;;12.45;9.10;;;;;;;;;;5040952;28;20025;-79
2021/07/16 06:34:23;;;;;;;13.82;9.50;;;;;;;;;;5047248;28;20036;-79
2021/07/16 06:36:48;;;;;;;11.35;8.63;;;;;;;;;;5038547;28;20032;-78
2021/07/16 06:39:14;;;;;;;13.25;9.40;;;;;;;;;;5044206;28;20024;-78
2021/07/16 06:41:39;;;;;;;14.25;10.57;;;;;;;;;;5040724;28;20032;-79
2021/07/16 06:44:06;;;;;;;12.48;8.80;;;;;;;;;;5039785;28;20037;-79
2021/07/16 06:46:32;;;;;;;10.48;8.18;;;;;;;;;;5041813;28;20021;-80
2021/07/16 06:48:57;;;;;;;13.85;10.15;;;;;;;;;;5036861;28;20511;-79
2021/07/16 06:51:22;;;;;;;11.05;9.07;;;;;;;;;;5042672;28;20071;-80
2021/07/16 06:53:48;;;;;;;10.98;8.93;;;;;;;;;;5035882;28;20021;-80
2021/07/16 06:56:13;;;;;;;9.90;8.85;;;;;;;;;;5042736;28;20048;-79
2021/07/16 06:58:39;;;;;;;12.63;10.57;;;;;;;;;;5043863;28;20492;-79
2021/07/16 07:01:04;;;;;;;12.27;9.45;;;;;;;;;;5042922;28;20579;-79
2021/07/16 07:03:30;;;;;;;12.20;10.20;;;;;;;;;;5043288;28;20021;-79
2021/07/16 07:05:56;;;;;;;10.35;8.55;;;;;;;;;;5042056;28;20350;-79
2021/07/16 07:08:21;;;;;;;11.98;8.55;;;;;;;;;;5046919;28;20033;-79
2021/07/16 07:10:47;;;;;;;8.50;6.20;;;;;;;;;;5045922;28;20044;-79
2021/07/16 07:13:13;;;;;;;6.95;4.90;;;;;;;;;;5040200;28;20021;-79
2021/07/16 07:15:38;;;;;;;5.90;4.55;;;;;;;;;;5042890;28;20055;-80
2021/07/16 07:18:07;;;;;;;8.40;5.63;;;;;;;;;;5042235;28;20108;-80
2021/07/16 07:20:34;;;;;;;7.85;6.70;;;;;;;;;;5037266;28;20029;-79
2021/07/16 07:23:01;;;;;;;9.02;6.45;;;;;;;;;;5044655;28;20029;-80
2021/07/16 07:25:27;;;;;;;9.75;6.35;;;;;;;;;;5040335;28;20044;-79
2021/07/16 07:27:53;;;;;;;9.32;7.18;;;;;;;;;;5039038;28;20032;-78
2021/07/16 07:30:19;;;;;;;10.43;6.68;;;;;;;;;;5038199;28;20409;-79
2021/07/16 07:32:44;;;;;;;10.43;7.68;;;;;;;;;;5032965;28;20033;-78
2021/07/16 07:35:11;;;;;;;8.45;6.20;;;;;;;;;;5038110;28;20466;-80
2021/07/16 07:37:36;;;;;;;8.95;6.70;;;;;;;;;;5058888;28;20502;-79
2021/07/16 07:40:05;;;;;;;9.60;6.05;;;;;;;;;;5034313;28;20048;-80
2021/07/16 07:42:31;;;;;;;9.40;6.22;;;;;;;;;;5039272;28;20492;-80
2021/07/16 07:44:57;;;;;;;7.95;6.30;;;;;;;;;;5054873;28;20039;-79
2021/07/16 07:47:22;;;;;;;9.93;6.80;;;;;;;;;;5044621;28;20040;-79
2021/07/16 07:49:48;;;;;;;8.73;6.38;;;;;;;;;;5041872;28;20025;-79
2021/07/16 07:52:14;;;;;;;11.07;6.20;;;;;;;;;;5041159;28;20124;-78
2021/07/16 07:54:39;;;;;;;9.82;6.47;;;;;;;;;;5044996;28;20543;-78
2021/07/16 07:57:05;;;;;;;8.38;5.80;;;;;;;;;;5059742;28;20103;-78
2021/07/16 07:59:31;;;;;;;8.60;7.05;;;;;;;;;;5038772;28;20036;-78
2021/07/16 08:01:57;;;;;;;8.07;5.60;;;;;;;;;;5038579;28;20024;-78
2021/07/16 08:04:22;;;;;;;8.00;5.85;;;;;;;;;;5038610;28;20022;-79
2021/07/16 08:06:48;;;;;;;11.73;6.50;;;;;;;;;;5036373;28;20418;-79
2021/07/16 08:09:14;;;;;;;10.43;6.03;;;;;;;;;;5038195;28;20035;-79
2021/07/16 08:11:39;;;;;;;9.07;5.88;;;;;;;;;;5038160;28;20036;-79
2021/07/16 08:14:05;;;;;;;8.45;5.55;;;;;;;;;;5038867;28;20239;-80
2021/07/16 08:16:30;;;;;;;7.68;5.97;;;;;;;;;;5041475;28;20433;-78
2021/07/16 08:18:56;;;;;;;12.60;6.50;;;;;;;;;;5040450;28;20113;-78
2021/07/16 08:21:23;;;;;;;9.48;5.93;;;;;;;;;;5041659;28;20033;-78
2021/07/16 08:23:49;;;;;;;9.60;7.05;;;;;;;;;;5040911;28;20025;-78
2021/07/16 08:26:15;;;;;;;8.05;5.90;;;;;;;;;;5036907;28;20024;-79
2021/07/16 08:28:40;;;;;;;9.27;7.10;;;;;;;;;;5042899;28;20121;-79
2021/07/16 08:31:06;;;;;;;7.22;6.30;;;;;;;;;;5038355;28;20436;-78
2021/07/16 08:33:32;;;;;;;8.80;5.97;;;;;;;;;;5036851;28;20503;-78
2021/07/16 08:35:58;;;;;;;9.93;7.38;;;;;;;;;;5040256;28;20299;-78
2021/07/16 08:38:23;;;;;;;11.70;5.90;;;;;;;;;;5038339;28;20095;-79
2021/07/16 08:40:50;;;;;;;9.60;5.88;;;;;;;;;;5040317;28;20091;-76
2021/07/16 08:43:18;;;;;;;12.80;6.80;;;;;;;;;;5038894;28;20025;-75
2021/07/16 08:45:45;;;;;;;7.40;6.25;;;;;;;;;;5044540;28;20037;-75
2021/07/16 08:48:11;;;;;;;7.07;5.88;;;;;;;;;;5041221;28;20085;-77
2021/07/16 08:50:38;;;;;;;8.20;6.10;;;;;;;;;;5037793;28;20037;-76
2021/07/16 08:53:03;;;;;;;9.05;5.82;;;;;;;;;;5030957;28;20570;-76
2021/07/16 08:55:36;;;;;;;9.52;5.38;;;;;;;;;;5040168;28;20078;-74
2021/07/16 08:58:05;;;;;;;6.05;5.45;;;;;;;;;;5046158;28;20445;-77
2021/07/16 09:00:31;;;;;;;5.50;4.95;;;;;;;;;;5044687;28;20154;-75
2021/07/16 09:02:59;;;;;;;8.13;5.35;;;;;;;;;;5037519;28;20856;-75
2021/07/16 09:05:40;;;;;;;7.10;6.40;;;;;;;;;;5043150;28;20029;-75
2021/07/16 09:08:19;;;;;;;6.38;5.70;;;;;;;;;;5040056;28;20393;-74
2021/07/16 09:10:56;;;;;;;;;;;;;;;;;;5037845;28;20406;-77
2021/07/16 09:13:22;;;;;;;7.00;6.18;;;;;;;;;;5044426;28;19956;-75
2021/07/16 09:15:53;;;;;;;6.72;6.07;;;;;;;;;;5036348;28;20116;-77
2021/07/16 09:18:24;;;;;;;5.93;5.40;;;;;;;;;;5044307;28;20044;-75
2021/07/16 09:21:05;;;;;;;5.70;5.20;;;;;;;;;;5044193;28;20043;-74
2021/07/16 09:23:48;;;;;;;4.78;4.28;;;;;;;;;;5041176;28;20491;-75
2021/07/16 09:26:25;;;;;;;11.02;5.43;;;;;;;;;;5037766;28;20713;-76
2021/07/16 09:28:51;;;;;;;6.38;4.65;;;;;;;;;;5038894;28;20125;-77
2021/07/16 09:31:23;;;;;;;5.20;4.55;;;;;;;;;;5041094;28;20024;-79
2021/07/16 09:34:01;;;;;;;4.95;4.30;;;;;;;;;;5037479;28;20032;-78
2021/07/16 09:36:35;;;;;;;4.75;4.25;;;;;;;;;;5037860;28;20021;-78
2021/07/16 09:39:13;;;;;;;5.43;4.28;;;;;;;;;;5031693;28;20542;-77
2021/07/16 09:41:53;;;;;;;5.57;5.07;;;;;;;;;;5039277;28;20103;-79
2021/07/16 09:44:40;;;;;;;4.93;4.53;;;;;;;;;;5039284;28;20177;-78
2021/07/16 09:47:14;;;;;;;4.45;4.00;;;;;;;;;;5036488;28;20037;-77
2021/07/16 09:49:41;;;;;;;4.28;3.88;;;;;;;;;;5043164;28;20029;-77
2021/07/16 09:52:15;;;;;;;4.75;3.88;;;;;;;;;;5036876;28;20025;-77
2021/07/16 09:55:08;;;;;;;5.15;4.20;;;;;;;;;;5041378;28;20178;-78
2021/07/16 09:57:50;;;;;;;4.55;4.15;;;;;;;;;;5040193;28;20041;-78
2021/07/16 10:00:21;;;;;;;4.47;4.07;;;;;;;;;;5042198;28;20053;-78
2021/07/16 10:02:48;;;;;;;4.88;4.47;;;;;;;;;;5039459;28;20052;-77
2021/07/16 10:05:13;;;;;;;4.32;3.70;;;;;;;;;;5039353;28;20087;-79
2021/07/16 10:07:41;;;;;;;4.60;4.18;;;;;;;;;;5033992;28;20052;-78
2021/07/16 10:10:11;;;;;;;7.47;3.83;;;;;;;;;;5040447;28;20068;-78
2021/07/16 10:12:40;;;;;;;9.98;3.55;;;;;;;;;;5042655;28;20036;-78
2021/07/16 10:15:06;;;;;;;4.20;3.88;;;;;;;;;;5036999;28;20030;-79
2021/07/16 10:17:32;;;;;;;4.95;4.55;;;;;;;;;;5043743;28;20036;-78
2021/07/16 10:19:57;;;;;;;4.80;4.13;;;;;;;;;;5038272;28;20539;-78
2021/07/16 10:22:23;;;;;;;4.00;3.60;;;;;;;;;;5041607;28;20283;-77
2021/07/16 10:24:49;;;;;;;9.30;3.92;;;;;;;;;;5041294;28;20033;-79
2021/07/16 10:27:15;;;;;;;5.57;4.88;;;;;;;;;;5043217;28;20062;-79
2021/07/16 10:29:45;;;;;;;7.13;5.10;;;;;;;;;;5045346;28;20091;-78
2021/07/16 10:32:11;;;;;;;4.18;3.60;;;;;;;;;;5046111;28;20033;-77
2021/07/16 10:34:38;;;;;;;4.57;3.67;;;;;;;;;;5046130;28;20083;-80
2021/07/16 10:37:13;;;;;;;3.95;3.47;;;;;;;;;;5042585;28;20067;-78
2021/07/16 10:39:52;;;;;;;5.13;4.03;;;;;;;;;;5050938;28;20139;-78
2021/07/16 10:42:27;;;;;;;6.13;3.55;;;;;;;;;;5045853;28;20086;-80
2021/07/16 10:45:03;;;;;;;3.85;3.00;;;;;;;;;;5040933;28;20586;-78
2021/07/16 10:47:46;;;;;;;6.32;3.40;;;;;;;;;;5039682;28;20083;-78
2021/07/16 10:50:35;;;;;;;3.90;3.53;;;;;;;;;;5042204;28;20029;-77
2021/07/16 10:53:02;;;;;;;3.72;3.42;;;;;;;;;;5044669;28;20024;-79
2021/07/16 10:55:31;;;;;;;3.33;3.03;;;;;;;;;;5042175;28;20242;-78
2021/07/16 10:57:56;;;;;;;3.15;2.90;;;;;;;;;;5041236;28;20028;-78
2021/07/16 11:00:37;;;;;;;4.97;3.47;;;;;;;;;;5040001;28;20029;-78
2021/07/16 11:03:07;;;;;;;4.53;2.80;;;;;;;;;;5043212;28;20033;-79
2021/07/16 11:05:33;;;;;;;3.53;3.20;;;;;;;;;;5042395;28;20024;-79
2021/07/16 11:07:59;;;;;;;3.72;3.25;;;;;;;;;;5043297;28;20037;-78
2021/07/16 11:10:44;;;;;;;3.85;3.55;;;;;;;;;;5042438;28;20048;-79
2021/07/16 11:13:35;;;;;;;4.20;3.80;;;;;;;;;;5043154;28;20103;-79
2021/07/16 11:16:19;;;;;;;4.32;3.58;;;;;;;;;;5040387;28;20025;-79
2021/07/16 11:19:11;;;;;;;4.20;3.80;;;;;;;;;;5039606;28;20029;-78
2021/07/16 11:21:39;;;;;;;4.60;3.60;;;;;;;;;;5045642;28;20232;-78
2021/07/16 11:24:21;;;;;;;4.40;3.35;;;;;;;;;;5039732;28;20503;-77
2021/07/16 11:27:03;;;;;;;4.65;3.50;;;;;;;;;;5043044;28;20039;-77
2021/07/16 11:29:33;;;;;;;5.25;3.80;;;;;;;;;;5035563;28;20139;-78
2021/07/16 11:32:02;;;;;;;;;;;;;;;;;;5041706;28;20037;-78
2021/07/16 11:34:28;;;;;;;3.67;3.38;;;;;;;;;;5036169;28;20415;-78
2021/07/16 11:36:53;;;;;;;4.93;3.60;;;;;;;;;;5046231;28;20053;-78
2021/07/16 11:39:38;;;;;;;3.75;3.40;;;;;;;;;;5038178;28;20122;-79
2021/07/16 11:42:07;;;;;;;4.00;3.40;;;;;;;;;;5035039;28;20043;-78
2021/07/16 11:44:35;;;;;;;3.63;3.33;;;;;;;;;;5043090;28;20036;-78
2021/07/16 11:47:24;;;;;;;3.67;3.20;;;;;;;;;;5039996;28;20033;-78
2021/07/16 11:49:52;;;;;;;3.50;3.20;;;;;;;;;;5052083;28;20053;-79
2021/07/16 11:52:24;;;;;;;5.10;3.35;;;;;;;;;;5039879;28;20104;-78
2021/07/16 11:54:51;;;;;;;4.47;3.40;;;;;;;;;;5042165;28;20508;-78
2021/07/16 11:57:18;;;;;;;3.88;3.10;;;;;;;;;;5038410;28;20027;-79
2021/07/16 11:59:48;;;;;;;4.10;3.70;;;;;;;;;;5040716;28;20135;-78
2021/07/16 12:02:16;;;;;;;3.17;2.78;;;;;;;;;;5039464;28;20017;-78
2021/07/16 12:04:43;;;;;;;4.82;4.32;;;;;;;;;;5042282;28;20032;-78
2021/07/16 12:07:11;;;;;;;4.80;4.40;;;;;;;;;;5038966;28;20493;-78
2021/07/16 12:09:41;;;;;;;4.50;3.30;;;;;;;;;;5043125;28;20029;-77
2021/07/16 12:12:20;;;;;;;3.50;3.20;;;;;;;;;;5043441;28;20025;-77
2021/07/16 12:15:12;;;;;;;7.10;4.85;;;;;;;;;;5039262;28;20097;-79
2021/07/16 12:17:49;;;;;;;5.15;4.70;;;;;;;;;;5038405;28;20049;-78
2021/07/16 12:20:15;;;;;;;5.50;3.08;;;;;;;;;;5045018;28;20033;-78
2021/07/16 12:22:43;;;;;;;2.30;2.10;;;;;;;;;;5037173;28;20032;-78
2021/07/16 12:25:10;;;;;;;2.30;2.10;;;;;;;;;;5036208;28;20503;-79
2021/07/16 12:27:35;;;;;;;2.53;2.33;;;;;;;;;;5040386;28;20119;-78
2021/07/16 12:30:05;;;;;;;3.15;2.80;;;;;;;;;;5040131;28;20571;-78
2021/07/16 12:32:45;;;;;;;2.60;2.40;;;;;;;;;;5039103;28;20515;-78
2021/07/16 12:35:22;;;;;;;3.15;2.83;;;;;;;;;;5035268;28;20071;-78
2021/07/16 12:37:52;;;;;;;4.55;4.10;;;;;;;;;;5038787;28;20175;-78
2021/07/16 12:40:21;;;;;;;5.50;4.55;;;;;;;;;;5041292;28;20033;-77
2021/07/16 12:43:08;;;;;;;4.78;3.42;;;;;;;;;;5043645;28;20025;-77
2021/07/16 12:45:44;;;;;;;5.65;3.85;;;;;;;;;;5039690;28;20083;-76
2021/07/16 12:48:15;;;;;;;2.80;2.60;;;;;;;;;;5043357;28;20028;-76
2021/07/16 12:50:41;;;;;;;3.42;3.13;;;;;;;;;;5045097;28;20428;-77
2021/07/16 12:53:08;;;;;;;3.42;3.08;;;;;;;;;;5043920;28;20017;-77
2021/07/16 12:55:35;;;;;;;3.15;2.85;;;;;;;;;;5043223;28;20039;-77
2021/07/16 12:58:04;;;;;;;3.53;2.85;;;;;;;;;;5039136;28;20551;-76
2021/07/16 13:00:31;;;;;;;3.28;3.08;;;;;;;;;;5034953;28;20029;-76
2021/07/16 13:03:19;;;;;;;4.10;2.95;;;;;;;;;;5046144;28;20036;-77
2021/07/16 13:05:46;;;;;;;4.22;2.88;;;;;;;;;;5035090;28;20121;-77
2021/07/16 13:08:16;;;;;;;2.60;2.38;;;;;;;;;;5037195;28;20435;-76
2021/07/16 13:10:52;;;;;;;3.13;2.80;;;;;;;;;;5031587;28;20461;-76
2021/07/16 13:13:24;;;;;;;2.60;2.40;;;;;;;;;;5038083;28;20053;-77
2021/07/16 13:16:12;;;;;;;2.40;2.20;;;;;;;;;;5042168;28;20365;-77
2021/07/16 13:18:39;;;;;;;2.88;2.10;;;;;;;;;;5042430;28;20692;-77
2021/07/16 13:21:05;;;;;;;2.42;2.00;;;;;;;;;;5040572;28;20056;-78
2021/07/16 13:23:32;;;;;;;2.20;2.00;;;;;;;;;;5046553;28;20068;-77
2021/07/16 13:25:58;;;;;;;3.10;2.05;;;;;;;;;;5045506;28;20021;-78
2021/07/16 13:28:24;;;;;;;2.35;1.75;;;;;;;;;;5039792;28;20035;-77
2021/07/16 13:30:50;;;;;;;1.80;1.70;;;;;;;;;;5043337;28;20049;-77
2021/07/16 13:33:15;;;;;;;2.35;1.90;;;;;;;;;;5044004;28;20040;-77
2021/07/16 13:35:41;;;;;;;2.15;1.95;;;;;;;;;;5045936;28;20481;-77
2021/07/16 13:38:06;;;;;;;2.30;2.10;;;;;;;;;;5037925;28;20071;-77
2021/07/16 13:40:32;;;;;;;2.05;1.88;;;;;;;;;;5048980;28;20029;-77
2021/07/16 13:42:57;;;;;;;2.33;2.00;;;;;;;;;;5038750;28;20143;-77
2021/07/16 13:45:23;;;;;;;2.05;1.95;;;;;;;;;;5047135;28;20047;-76
2021/07/16 13:47:48;;;;;;;2.53;2.33;;;;;;;;;;5043083;28;20310;-76
2021/07/16 13:50:14;;;;;;;3.08;2.33;;;;;;;;;;5044386;28;20108;-76
2021/07/16 13:52:39;;;;;;;2.60;2.40;;;;;;;;;;5045779;28;20032;-77
2021/07/16 13:55:05;;;;;;;2.38;2.17;;;;;;;;;;5043830;28;20532;-75
2021/07/16 13:57:31;;;;;;;2.45;2.25;;;;;;;;;;5045897;28;20025;-76
2021/07/16 13:59:56;;;;;;;2.83;2.17;;;;;;;;;;5040091;28;20051;-76
2021/07/16 14:02:22;;;;;;;2.50;2.30;;;;;;;;;;5045076;28;20059;-76
2021/07/16 14:04:47;;;;;;;3.35;2.40;;;;;;;;;;5050303;28;20037;-78
2021/07/16 14:07:13;;;;;;;3.38;2.00;;;;;;;;;;5062614;28;20025;-76
2021/07/16 14:09:38;;;;;;;3.45;2.50;;;;;;;;;;5041072;28;20481;-76
2021/07/16 14:12:05;;;;;;;3.17;2.30;;;;;;;;;;5048098;28;20032;-76
2021/07/16 14:14:31;;;;;;;3.63;2.70;;;;;;;;;;5047790;28;20053;-75
2021/07/16 14:16:56;;;;;;;4.43;2.15;;;;;;;;;;5044885;28;20064;-76
2021/07/16 14:19:21;;;;;;;2.40;2.20;;;;;;;;;;5044751;28;20025;-76
2021/07/16 14:21:47;;;;;;;2.97;1.80;;;;;;;;;;5043597;28;20512;-76
2021/07/16 14:24:12;;;;;;;3.35;2.03;;;;;;;;;;5042669;28;20028;-76
2021/07/16 14:26:38;;;;;;;2.17;1.90;;;;;;;;;;5042108;28;20029;-76
2021/07/16 14:29:04;;;;;;;1.98;1.75;;;;;;;;;;5040213;28;20032;-76
2021/07/16 14:31:29;;;;;;;2.00;1.83;;;;;;;;;;5044448;28;20029;-76
2021/07/16 14:33:55;;;;;;;2.10;1.90;;;;;;;;;;5044575;28;20102;-77
2021/07/16 14:36:21;;;;;;;2.75;1.73;;;;;;;;;;5040760;28;20025;-77
2021/07/16 14:38:47;;;;;;;2.80;1.90;;;;;;;;;;5047036;28;20033;-77
2021/07/16 14:41:14;;;;;;;2.00;1.90;;;;;;;;;;5045266;28;20032;-77
2021/07/16 14:43:40;;;;;;;3.03;1.60;;;;;;;;;;5045514;28;20029;-76